Sekiu, WA (98381)

2:11 AM PDT on September 23, 2014 (GMT -0700)
Curley's Resort & Dive Center | Change Station
CLOSE
Current Station
Personal Weather Station
Location: Sekiu, WA
Elevation: 12 ft
Nearby Weather Stations

Elev 12 ft 48.26 °N, 124.30 °W | Updated 12 minutes ago

Mostly Cloudy
Mostly Cloudy
54.8 °F
Feels Like 54.8 °F
N
0.0
Wind Variable Wind from WSW

Today
High -- | Low -- °F
--% Chance of Precip.
Yesterday
High -- | Low -- °F
Precip. -- in
7:05 AM 7:12 PM
Waning Crescent, 1% visible
Pressure 29.86 in
Visibility 10.0 miles
Clouds Overcast 3800 ft
Dew Point 53 °F
Humidity 95%
Rainfall 0.00 in
Snow Depth Not available.
UV 0 out of 12
Pollen .80 out of 12
Air Quality Not available.
Flu Activity Not available.
METAR KUIL 230853Z AUTO 07004KT 10SM OVC038 14/14 A2986 RMK AO2 SLP112 T01440139 58010

More Conditions Fewer Conditions

Pressure 29.86 in
Visibility 10.0 miles
Clouds Overcast 3800 ft
Dew Point 53 °F
Humidity 95%
Rainfall 0.00 in
Snow Depth Not available.
UV 0 out of 12
Pollen .80 out of 12
Air Quality Not available.
Flu Activity Not available.
METAR KUIL 230853Z AUTO 07004KT 10SM OVC038 14/14 A2986 RMK AO2 SLP112 T01440139 58010

More Conditions Fewer Conditions

10-Day Weather Forecast

Almanac

Astronomy

Sep. 23, 2014 Rise Set
Actual Time 7:05 AM PDT 7:12 PM PDT
Civil Twilight 6:34 AM PDT 7:43 PM PDT
Nautical Twilight 5:57 AM PDT 8:20 PM PDT
Astronomical Twilight 5:19 AM PDT 8:57 PM PDT
Moon 6:34 AM PDT 6:52 PM PDT
Length of Visible Light 13h 09m
Length of Day
12h 07m
Tomorrow will be 3m 29s shorter.
Waning Crescent, 1% of the Moon is Illuminated
Today
Waning Crescent
Sep 24
New
Oct 1
First Quarter
Oct 8
Full
Oct 15
Last Quarter

Today's Extremes

State Highs State Lows

Community

WunderPhotos

Upload Photos

1,755,643 photos uploaded!

Nearby

Snow Depth

Station Depth Elevation
Lost Horse 0 in 5000 ft
Mf Nooksack 4 in 4980 ft
Grouse Camp 0 in 5380 ft
Huckleberry Creek 0 in 2000 ft
Surprise Lakes 1 in 4250 ft

Earthquake Activity

City Distance Mag. Time & Date
No recent earthquake activity has been reported nearby.
Minimum magnitude displayed is 2.5.

Coastal Water Temperatures

Place Temperature
La Push, WA 59.0 °F
Port Angeles, WA 53.1 °F
Friday Harbor, WA 52.0 °F
Westport, WA 60.1 °F

Nearby Weather Stations